sensor_id;sensor_type;location;lat;lon;timestamp;P1;durP1;ratioP1;P2;durP2;ratioP2
84264;SDS011;74412;45.626;5.108;2023-12-07T00:02:10;23.75;;;22.50;;
84264;SDS011;74412;45.626;5.108;2023-12-07T00:04:39;34.75;;;30.00;;
84264;SDS011;74412;45.626;5.108;2023-12-07T00:07:06;27.00;;;22.75;;
84264;SDS011;74412;45.626;5.108;2023-12-07T00:09:32;29.25;;;26.00;;
84264;SDS011;74412;45.626;5.108;2023-12-07T00:11:59;38.50;;;32.00;;
84264;SDS011;74412;45.626;5.108;2023-12-07T00:14:25;31.75;;;27.50;;
84264;SDS011;74412;45.626;5.108;2023-12-07T00:16:52;32.50;;;27.50;;
84264;SDS011;74412;45.626;5.108;2023-12-07T00:19:19;34.25;;;27.50;;
84264;SDS011;74412;45.626;5.108;2023-12-07T00:21:47;39.25;;;34.25;;
84264;SDS011;74412;45.626;5.108;2023-12-07T00:24:13;37.50;;;29.75;;
84264;SDS011;74412;45.626;5.108;2023-12-07T00:26:40;34.00;;;26.25;;
84264;SDS011;74412;45.626;5.108;2023-12-07T00:29:06;31.00;;;30.50;;
84264;SDS011;74412;45.626;5.108;2023-12-07T00:31:33;36.00;;;31.00;;
84264;SDS011;74412;45.626;5.108;2023-12-07T00:34:00;34.75;;;31.50;;
84264;SDS011;74412;45.626;5.108;2023-12-07T00:36:26;40.75;;;32.25;;
84264;SDS011;74412;45.626;5.108;2023-12-07T00:38:54;35.75;;;32.00;;
84264;SDS011;74412;45.626;5.108;2023-12-07T00:41:21;37.75;;;33.25;;
84264;SDS011;74412;45.626;5.108;2023-12-07T00:43:48;41.75;;;36.25;;
84264;SDS011;74412;45.626;5.108;2023-12-07T00:46:15;37.00;;;33.75;;
84264;SDS011;74412;45.626;5.108;2023-12-07T00:48:41;33.50;;;31.75;;
84264;SDS011;74412;45.626;5.108;2023-12-07T00:51:08;32.75;;;30.00;;
84264;SDS011;74412;45.626;5.108;2023-12-07T00:53:35;31.25;;;30.25;;
84264;SDS011;74412;45.626;5.108;2023-12-07T00:56:04;37.50;;;30.50;;
84264;SDS011;74412;45.626;5.108;2023-12-07T00:58:31;40.75;;;31.75;;
84264;SDS011;74412;45.626;5.108;2023-12-07T01:00:57;34.00;;;31.00;;
84264;SDS011;74412;45.626;5.108;2023-12-07T01:03:24;41.50;;;37.00;;
84264;SDS011;74412;45.626;5.108;2023-12-07T01:05:51;48.75;;;38.25;;
84264;SDS011;74412;45.626;5.108;2023-12-07T01:08:17;47.00;;;37.50;;
84264;SDS011;74412;45.626;5.108;2023-12-07T01:10:44;47.50;;;38.25;;
84264;SDS011;74412;45.626;5.108;2023-12-07T01:13:12;48.25;;;41.00;;
84264;SDS011;74412;45.626;5.108;2023-12-07T01:15:38;43.50;;;37.25;;
84264;SDS011;74412;45.626;5.108;2023-12-07T01:18:05;51.00;;;40.25;;
84264;SDS011;74412;45.626;5.108;2023-12-07T01:20:32;39.00;;;37.00;;
84264;SDS011;74412;45.626;5.108;2023-12-07T01:22:58;43.75;;;37.50;;
84264;SDS011;74412;45.626;5.108;2023-12-07T01:25:25;34.00;;;29.50;;
84264;SDS011;74412;45.626;5.108;2023-12-07T01:27:52;37.25;;;31.25;;
84264;SDS011;74412;45.626;5.108;2023-12-07T01:30:20;36.50;;;32.75;;
84264;SDS011;74412;45.626;5.108;2023-12-07T01:32:46;31.00;;;30.50;;
84264;SDS011;74412;45.626;5.108;2023-12-07T01:35:13;33.00;;;27.25;;
84264;SDS011;74412;45.626;5.108;2023-12-07T01:37:40;30.50;;;25.50;;
84264;SDS011;74412;45.626;5.108;2023-12-07T01:40:07;28.75;;;26.50;;
84264;SDS011;74412;45.626;5.108;2023-12-07T01:42:35;26.25;;;22.50;;
84264;SDS011;74412;45.626;5.108;2023-12-07T01:45:03;24.50;;;21.00;;
84264;SDS011;74412;45.626;5.108;2023-12-07T01:47:31;21.50;;;20.50;;
84264;SDS011;74412;45.626;5.108;2023-12-07T01:50:01;19.75;;;19.75;;
84264;SDS011;74412;45.626;5.108;2023-12-07T01:52:30;24.75;;;21.00;;
84264;SDS011;74412;45.626;5.108;2023-12-07T01:54:57;26.25;;;19.50;;
84264;SDS011;74412;45.626;5.108;2023-12-07T01:57:24;21.00;;;21.00;;
84264;SDS011;74412;45.626;5.108;2023-12-07T01:59:51;29.75;;;20.50;;
84264;SDS011;74412;45.626;5.108;2023-12-07T02:02:18;60.50;;;38.75;;
84264;SDS011;74412;45.626;5.108;2023-12-07T02:04:46;52.75;;;38.50;;
84264;SDS011;74412;45.626;5.108;2023-12-07T02:07:13;56.50;;;34.75;;
84264;SDS011;74412;45.626;5.108;2023-12-07T02:09:39;41.25;;;27.50;;
84264;SDS011;74412;45.626;5.108;2023-12-07T02:12:07;53.50;;;38.25;;
84264;SDS011;74412;45.626;5.108;2023-12-07T02:14:34;45.25;;;34.50;;
84264;SDS011;74412;45.626;5.108;2023-12-07T02:17:03;35.00;;;23.25;;
84264;SDS011;74412;45.626;5.108;2023-12-07T02:19:49;33.25;;;24.25;;
84264;SDS011;74412;45.626;5.108;2023-12-07T02:22:22;24.25;;;20.25;;
84264;SDS011;74412;45.626;5.108;2023-12-07T02:24:56;30.00;;;19.75;;
84264;SDS011;74412;45.626;5.108;2023-12-07T02:27:36;23.75;;;20.50;;
84264;SDS011;74412;45.626;5.108;2023-12-07T02:30:04;18.75;;;16.50;;
84264;SDS011;74412;45.626;5.108;2023-12-07T02:32:32;23.00;;;19.75;;
84264;SDS011;74412;45.626;5.108;2023-12-07T02:34:59;19.50;;;19.00;;
84264;SDS011;74412;45.626;5.108;2023-12-07T02:37:27;20.75;;;20.00;;
84264;SDS011;74412;45.626;5.108;2023-12-07T02:39:58;22.50;;;19.25;;
84264;SDS011;74412;45.626;5.108;2023-12-07T02:42:25;22.50;;;16.75;;
84264;SDS011;74412;45.626;5.108;2023-12-07T02:44:54;17.75;;;16.25;;
84264;SDS011;74412;45.626;5.108;2023-12-07T02:47:21;18.75;;;15.75;;
84264;SDS011;74412;45.626;5.108;2023-12-07T02:49:48;23.50;;;19.50;;
84264;SDS011;74412;45.626;5.108;2023-12-07T02:52:14;25.25;;;19.75;;
84264;SDS011;74412;45.626;5.108;2023-12-07T02:54:41;21.75;;;18.25;;
84264;SDS011;74412;45.626;5.108;2023-12-07T02:57:07;9.25;;;8.75;;
84264;SDS011;74412;45.626;5.108;2023-12-07T02:59:34;17.50;;;15.25;;
84264;SDS011;74412;45.626;5.108;2023-12-07T03:02:02;19.50;;;14.00;;
84264;SDS011;74412;45.626;5.108;2023-12-07T03:04:29;18.75;;;14.75;;
84264;SDS011;74412;45.626;5.108;2023-12-07T03:06:56;15.75;;;11.50;;
84264;SDS011;74412;45.626;5.108;2023-12-07T03:09:22;16.25;;;12.50;;
84264;SDS011;74412;45.626;5.108;2023-12-07T03:11:49;17.25;;;15.25;;
84264;SDS011;74412;45.626;5.108;2023-12-07T03:14:16;13.75;;;12.25;;
84264;SDS011;74412;45.626;5.108;2023-12-07T03:16:44;21.25;;;17.00;;
84264;SDS011;74412;45.626;5.108;2023-12-07T03:19:12;18.50;;;16.00;;
84264;SDS011;74412;45.626;5.108;2023-12-07T03:21:39;12.50;;;12.50;;
84264;SDS011;74412;45.626;5.108;2023-12-07T03:24:06;19.75;;;15.00;;
84264;SDS011;74412;45.626;5.108;2023-12-07T03:26:33;18.00;;;18.00;;
84264;SDS011;74412;45.626;5.108;2023-12-07T03:29:00;12.75;;;10.50;;
84264;SDS011;74412;45.626;5.108;2023-12-07T03:31:27;16.75;;;15.75;;
84264;SDS011;74412;45.626;5.108;2023-12-07T03:33:54;22.25;;;15.75;;
84264;SDS011;74412;45.626;5.108;2023-12-07T03:36:23;22.25;;;18.00;;
84264;SDS011;74412;45.626;5.108;2023-12-07T03:38:49;19.25;;;18.50;;
84264;SDS011;74412;45.626;5.108;2023-12-07T03:41:16;22.50;;;18.00;;
84264;SDS011;74412;45.626;5.108;2023-12-07T03:43:43;29.00;;;24.50;;
84264;SDS011;74412;45.626;5.108;2023-12-07T03:46:10;20.25;;;18.50;;
84264;SDS011;74412;45.626;5.108;2023-12-07T03:48:37;21.00;;;18.25;;
84264;SDS011;74412;45.626;5.108;2023-12-07T03:51:04;19.50;;;18.75;;
84264;SDS011;74412;45.626;5.108;2023-12-07T03:53:32;14.75;;;13.25;;
84264;SDS011;74412;45.626;5.108;2023-12-07T03:55:59;19.25;;;16.75;;
84264;SDS011;74412;45.626;5.108;2023-12-07T03:58:25;17.75;;;15.25;;
84264;SDS011;74412;45.626;5.108;2023-12-07T04:00:52;16.50;;;15.00;;
84264;SDS011;74412;45.626;5.108;2023-12-07T04:03:18;18.00;;;16.00;;
84264;SDS011;74412;45.626;5.108;2023-12-07T04:05:45;23.75;;;16.50;;
84264;SDS011;74412;45.626;5.108;2023-12-07T04:08:12;15.00;;;14.50;;
84264;SDS011;74412;45.626;5.108;2023-12-07T04:10:40;16.25;;;13.50;;
84264;SDS011;74412;45.626;5.108;2023-12-07T04:13:06;17.00;;;15.00;;
84264;SDS011;74412;45.626;5.108;2023-12-07T04:15:33;16.50;;;14.50;;
84264;SDS011;74412;45.626;5.108;2023-12-07T04:18:00;15.75;;;14.50;;
84264;SDS011;74412;45.626;5.108;2023-12-07T04:20:27;13.50;;;12.00;;
84264;SDS011;74412;45.626;5.108;2023-12-07T04:22:54;17.00;;;14.25;;
84264;SDS011;74412;45.626;5.108;2023-12-07T04:25:20;15.50;;;11.75;;
84264;SDS011;74412;45.626;5.108;2023-12-07T04:27:49;13.25;;;9.50;;
84264;SDS011;74412;45.626;5.108;2023-12-07T04:30:15;16.50;;;15.25;;
84264;SDS011;74412;45.626;5.108;2023-12-07T04:32:42;15.25;;;14.50;;
84264;SDS011;74412;45.626;5.108;2023-12-07T04:35:09;23.50;;;18.50;;
84264;SDS011;74412;45.626;5.108;2023-12-07T04:37:35;21.50;;;17.75;;
84264;SDS011;74412;45.626;5.108;2023-12-07T04:40:02;17.50;;;15.50;;
84264;SDS011;74412;45.626;5.108;2023-12-07T04:42:29;19.25;;;13.25;;
84264;SDS011;74412;45.626;5.108;2023-12-07T04:44:57;16.00;;;15.50;;
84264;SDS011;74412;45.626;5.108;2023-12-07T04:47:24;23.50;;;16.25;;
84264;SDS011;74412;45.626;5.108;2023-12-07T04:49:51;16.25;;;14.25;;
84264;SDS011;74412;45.626;5.108;2023-12-07T04:52:17;20.50;;;16.00;;
84264;SDS011;74412;45.626;5.108;2023-12-07T04:54:44;19.25;;;15.50;;
84264;SDS011;74412;45.626;5.108;2023-12-07T04:57:11;18.50;;;16.25;;
84264;SDS011;74412;45.626;5.108;2023-12-07T04:59:37;20.50;;;20.50;;
84264;SDS011;74412;45.626;5.108;2023-12-07T05:02:05;25.00;;;23.00;;
84264;SDS011;74412;45.626;5.108;2023-12-07T05:04:32;27.75;;;23.00;;
84264;SDS011;74412;45.626;5.108;2023-12-07T05:06:59;22.25;;;17.50;;
84264;SDS011;74412;45.626;5.108;2023-12-07T05:09:27;30.00;;;24.00;;
84264;SDS011;74412;45.626;5.108;2023-12-07T05:11:56;32.50;;;24.50;;
84264;SDS011;74412;45.626;5.108;2023-12-07T05:14:23;28.25;;;21.75;;
84264;SDS011;74412;45.626;5.108;2023-12-07T05:16:49;27.75;;;23.50;;
84264;SDS011;74412;45.626;5.108;2023-12-07T05:19:19;28.50;;;25.75;;
84264;SDS011;74412;45.626;5.108;2023-12-07T05:21:46;30.25;;;27.00;;
84264;SDS011;74412;45.626;5.108;2023-12-07T05:24:15;31.00;;;26.75;;
84264;SDS011;74412;45.626;5.108;2023-12-07T05:26:42;28.75;;;25.25;;
84264;SDS011;74412;45.626;5.108;2023-12-07T05:29:11;35.75;;;27.75;;
84264;SDS011;74412;45.626;5.108;2023-12-07T05:31:37;33.25;;;22.00;;
84264;SDS011;74412;45.626;5.108;2023-12-07T05:34:04;30.50;;;19.25;;
84264;SDS011;74412;45.626;5.108;2023-12-07T05:36:33;27.00;;;25.00;;
84264;SDS011;74412;45.626;5.108;2023-12-07T05:38:59;31.00;;;28.75;;
84264;SDS011;74412;45.626;5.108;2023-12-07T05:41:26;35.00;;;29.00;;
84264;SDS011;74412;45.626;5.108;2023-12-07T05:43:52;28.00;;;24.00;;
84264;SDS011;74412;45.626;5.108;2023-12-07T05:46:19;36.75;;;29.25;;
84264;SDS011;74412;45.626;5.108;2023-12-07T05:48:46;35.50;;;31.50;;
84264;SDS011;74412;45.626;5.108;2023-12-07T05:51:12;34.00;;;31.00;;
84264;SDS011;74412;45.626;5.108;2023-12-07T05:53:41;35.75;;;26.50;;
84264;SDS011;74412;45.626;5.108;2023-12-07T05:56:08;31.75;;;25.25;;
84264;SDS011;74412;45.626;5.108;2023-12-07T05:58:35;32.25;;;28.00;;
84264;SDS011;74412;45.626;5.108;2023-12-07T06:01:02;37.50;;;31.25;;
84264;SDS011;74412;45.626;5.108;2023-12-07T06:03:29;31.75;;;28.75;;
84264;SDS011;74412;45.626;5.108;2023-12-07T06:05:55;35.00;;;29.25;;
84264;SDS011;74412;45.626;5.108;2023-12-07T06:08:22;29.00;;;26.50;;
84264;SDS011;74412;45.626;5.108;2023-12-07T06:10:50;35.25;;;29.25;;
84264;SDS011;74412;45.626;5.108;2023-12-07T06:13:16;31.00;;;29.25;;
84264;SDS011;74412;45.626;5.108;2023-12-07T06:15:43;31.75;;;28.00;;
84264;SDS011;74412;45.626;5.108;2023-12-07T06:18:10;38.00;;;27.50;;
84264;SDS011;74412;45.626;5.108;2023-12-07T06:20:36;29.75;;;27.25;;
84264;SDS011;74412;45.626;5.108;2023-12-07T06:23:03;38.25;;;34.00;;
84264;SDS011;74412;45.626;5.108;2023-12-07T06:25:29;33.25;;;25.00;;
84264;SDS011;74412;45.626;5.108;2023-12-07T06:27:57;31.75;;;26.00;;
84264;SDS011;74412;45.626;5.108;2023-12-07T06:30:24;31.25;;;27.25;;
84264;SDS011;74412;45.626;5.108;2023-12-07T06:32:51;28.75;;;27.25;;
84264;SDS011;74412;45.626;5.108;2023-12-07T06:35:17;35.25;;;28.00;;
84264;SDS011;74412;45.626;5.108;2023-12-07T06:37:44;34.50;;;28.00;;
84264;SDS011;74412;45.626;5.108;2023-12-07T06:40:11;36.25;;;27.75;;
84264;SDS011;74412;45.626;5.108;2023-12-07T06:42:38;30.75;;;27.50;;
84264;SDS011;74412;45.626;5.108;2023-12-07T06:45:06;33.75;;;30.75;;
84264;SDS011;74412;45.626;5.108;2023-12-07T06:47:36;30.75;;;28.75;;
84264;SDS011;74412;45.626;5.108;2023-12-07T06:50:03;26.50;;;23.50;;
84264;SDS011;74412;45.626;5.108;2023-12-07T06:52:30;29.00;;;26.25;;
84264;SDS011;74412;45.626;5.108;2023-12-07T06:54:56;32.00;;;24.75;;
84264;SDS011;74412;45.626;5.108;2023-12-07T06:57:23;34.00;;;25.50;;
84264;SDS011;74412;45.626;5.108;2023-12-07T06:59:50;22.50;;;19.75;;
84264;SDS011;74412;45.626;5.108;2023-12-07T07:02:18;22.75;;;20.75;;
84264;SDS011;74412;45.626;5.108;2023-12-07T07:04:45;26.50;;;22.00;;
84264;SDS011;74412;45.626;5.108;2023-12-07T07:07:14;30.00;;;24.50;;
84264;SDS011;74412;45.626;5.108;2023-12-07T07:09:40;28.50;;;25.50;;
84264;SDS011;74412;45.626;5.108;2023-12-07T07:12:07;21.75;;;21.25;;
84264;SDS011;74412;45.626;5.108;2023-12-07T07:14:34;33.25;;;24.00;;
84264;SDS011;74412;45.626;5.108;2023-12-07T07:17:01;27.50;;;24.75;;
84264;SDS011;74412;45.626;5.108;2023-12-07T07:19:30;27.50;;;25.00;;
84264;SDS011;74412;45.626;5.108;2023-12-07T07:21:57;33.25;;;28.25;;
84264;SDS011;74412;45.626;5.108;2023-12-07T07:24:24;32.25;;;28.75;;
84264;SDS011;74412;45.626;5.108;2023-12-07T07:26:50;31.50;;;29.25;;
84264;SDS011;74412;45.626;5.108;2023-12-07T07:29:17;37.25;;;27.50;;
84264;SDS011;74412;45.626;5.108;2023-12-07T07:31:44;34.25;;;30.25;;
84264;SDS011;74412;45.626;5.108;2023-12-07T07:34:11;26.50;;;25.00;;
84264;SDS011;74412;45.626;5.108;2023-12-07T07:36:39;27.50;;;23.75;;
84264;SDS011;74412;45.626;5.108;2023-12-07T07:39:06;34.50;;;26.00;;
84264;SDS011;74412;45.626;5.108;2023-12-07T07:41:34;25.50;;;21.00;;
84264;SDS011;74412;45.626;5.108;2023-12-07T07:44:01;40.25;;;30.75;;
84264;SDS011;74412;45.626;5.108;2023-12-07T07:46:28;27.00;;;27.00;;
84264;SDS011;74412;45.626;5.108;2023-12-07T07:48:55;29.50;;;24.00;;
84264;SDS011;74412;45.626;5.108;2023-12-07T07:51:21;29.25;;;26.25;;
84264;SDS011;74412;45.626;5.108;2023-12-07T07:53:49;31.75;;;28.25;;
84264;SDS011;74412;45.626;5.108;2023-12-07T07:56:16;30.25;;;25.75;;
84264;SDS011;74412;45.626;5.108;2023-12-07T07:58:42;27.75;;;23.50;;
84264;SDS011;74412;45.626;5.108;2023-12-07T08:01:09;28.50;;;25.00;;
84264;SDS011;74412;45.626;5.108;2023-12-07T08:03:36;30.50;;;25.75;;
84264;SDS011;74412;45.626;5.108;2023-12-07T08:06:02;33.25;;;26.00;;
84264;SDS011;74412;45.626;5.108;2023-12-07T08:08:29;28.25;;;24.75;;
84264;SDS011;74412;45.626;5.108;2023-12-07T08:10:58;28.50;;;21.00;;
84264;SDS011;74412;45.626;5.108;2023-12-07T08:13:26;29.75;;;26.50;;
84264;SDS011;74412;45.626;5.108;2023-12-07T08:15:52;30.25;;;24.50;;
84264;SDS011;74412;45.626;5.108;2023-12-07T08:18:19;27.75;;;26.00;;
84264;SDS011;74412;45.626;5.108;2023-12-07T08:20:46;28.25;;;25.25;;
84264;SDS011;74412;45.626;5.108;2023-12-07T08:23:13;26.00;;;24.50;;
84264;SDS011;74412;45.626;5.108;2023-12-07T08:25:40;32.25;;;24.75;;
84264;SDS011;74412;45.626;5.108;2023-12-07T08:28:09;25.50;;;23.00;;
84264;SDS011;74412;45.626;5.108;2023-12-07T08:30:36;30.75;;;27.75;;
84264;SDS011;74412;45.626;5.108;2023-12-07T08:33:02;22.75;;;22.75;;
84264;SDS011;74412;45.626;5.108;2023-12-07T08:35:29;29.50;;;24.75;;
84264;SDS011;74412;45.626;5.108;2023-12-07T08:37:56;29.50;;;24.00;;
84264;SDS011;74412;45.626;5.108;2023-12-07T08:40:22;34.00;;;24.75;;
84264;SDS011;74412;45.626;5.108;2023-12-07T08:42:49;28.75;;;24.50;;
84264;SDS011;74412;45.626;5.108;2023-12-07T08:45:17;30.00;;;23.00;;
84264;SDS011;74412;45.626;5.108;2023-12-07T08:47:44;26.75;;;26.75;;
84264;SDS011;74412;45.626;5.108;2023-12-07T08:50:10;27.25;;;26.25;;
84264;SDS011;74412;45.626;5.108;2023-12-07T08:52:37;31.50;;;27.25;;
84264;SDS011;74412;45.626;5.108;2023-12-07T08:55:04;30.00;;;27.75;;
84264;SDS011;74412;45.626;5.108;2023-12-07T08:57:30;25.50;;;22.50;;
84264;SDS011;74412;45.626;5.108;2023-12-07T08:59:57;32.75;;;25.25;;
84264;SDS011;74412;45.626;5.108;2023-12-07T09:02:26;28.75;;;26.00;;
84264;SDS011;74412;45.626;5.108;2023-12-07T09:04:52;27.00;;;24.25;;
84264;SDS011;74412;45.626;5.108;2023-12-07T09:07:19;31.00;;;27.25;;
84264;SDS011;74412;45.626;5.108;2023-12-07T09:09:46;28.75;;;25.00;;
84264;SDS011;74412;45.626;5.108;2023-12-07T09:12:13;31.25;;;26.00;;
84264;SDS011;74412;45.626;5.108;2023-12-07T09:14:39;32.25;;;29.00;;
84264;SDS011;74412;45.626;5.108;2023-12-07T09:17:06;37.75;;;30.75;;
84264;SDS011;74412;45.626;5.108;2023-12-07T09:19:34;34.00;;;29.00;;
84264;SDS011;74412;45.626;5.108;2023-12-07T09:22:01;31.50;;;28.75;;
84264;SDS011;74412;45.626;5.108;2023-12-07T09:24:27;33.25;;;27.00;;
84264;SDS011;74412;45.626;5.108;2023-12-07T09:26:54;33.75;;;28.25;;
84264;SDS011;74412;45.626;5.108;2023-12-07T09:29:20;35.00;;;30.75;;
84264;SDS011;74412;45.626;5.108;2023-12-07T09:31:47;32.75;;;30.00;;
84264;SDS011;74412;45.626;5.108;2023-12-07T09:34:14;33.25;;;29.50;;
84264;SDS011;74412;45.626;5.108;2023-12-07T09:36:44;38.50;;;31.00;;
84264;SDS011;74412;45.626;5.108;2023-12-07T09:39:10;34.25;;;28.25;;
84264;SDS011;74412;45.626;5.108;2023-12-07T09:41:38;34.00;;;28.00;;
84264;SDS011;74412;45.626;5.108;2023-12-07T09:44:06;34.00;;;29.75;;
84264;SDS011;74412;45.626;5.108;2023-12-07T09:46:33;32.25;;;27.75;;
84264;SDS011;74412;45.626;5.108;2023-12-07T09:49:00;37.50;;;34.50;;
84264;SDS011;74412;45.626;5.108;2023-12-07T09:51:27;30.50;;;26.50;;
84264;SDS011;74412;45.626;5.108;2023-12-07T09:53:56;34.25;;;31.75;;
84264;SDS011;74412;45.626;5.108;2023-12-07T09:56:24;30.75;;;29.00;;
84264;SDS011;74412;45.626;5.108;2023-12-07T09:58:51;29.50;;;28.00;;
84264;SDS011;74412;45.626;5.108;2023-12-07T10:01:18;25.50;;;24.00;;
84264;SDS011;74412;45.626;5.108;2023-12-07T10:03:45;26.50;;;24.75;;
84264;SDS011;74412;45.626;5.108;2023-12-07T10:06:13;28.75;;;24.00;;
84264;SDS011;74412;45.626;5.108;2023-12-07T10:08:40;28.50;;;25.50;;
84264;SDS011;74412;45.626;5.108;2023-12-07T10:11:08;32.75;;;26.75;;
84264;SDS011;74412;45.626;5.108;2023-12-07T10:13:37;24.25;;;23.50;;
84264;SDS011;74412;45.626;5.108;2023-12-07T10:16:06;26.75;;;25.00;;
84264;SDS011;74412;45.626;5.108;2023-12-07T10:18:39;26.25;;;19.75;;
84264;SDS011;74412;45.626;5.108;2023-12-07T10:21:06;28.50;;;24.00;;
84264;SDS011;74412;45.626;5.108;2023-12-07T10:23:35;27.00;;;20.75;;
84264;SDS011;74412;45.626;5.108;2023-12-07T10:26:02;26.50;;;24.75;;
84264;SDS011;74412;45.626;5.108;2023-12-07T10:28:32;24.00;;;20.75;;
84264;SDS011;74412;45.626;5.108;2023-12-07T10:31:00;21.50;;;19.25;;
84264;SDS011;74412;45.626;5.108;2023-12-07T10:33:27;31.75;;;23.75;;
84264;SDS011;74412;45.626;5.108;2023-12-07T10:35:54;21.75;;;19.25;;
84264;SDS011;74412;45.626;5.108;2023-12-07T10:38:21;23.75;;;19.00;;
84264;SDS011;74412;45.626;5.108;2023-12-07T10:40:47;21.50;;;19.75;;
84264;SDS011;74412;45.626;5.108;2023-12-07T10:43:21;20.25;;;17.25;;
84264;SDS011;74412;45.626;5.108;2023-12-07T10:45:49;22.50;;;18.50;;
84264;SDS011;74412;45.626;5.108;2023-12-07T10:48:16;16.50;;;12.50;;
84264;SDS011;74412;45.626;5.108;2023-12-07T10:50:45;18.00;;;16.75;;
84264;SDS011;74412;45.626;5.108;2023-12-07T10:53:15;16.25;;;16.25;;
84264;SDS011;74412;45.626;5.108;2023-12-07T10:55:49;14.75;;;14.75;;
84264;SDS011;74412;45.626;5.108;2023-12-07T10:58:21;19.75;;;18.75;;
84264;SDS011;74412;45.626;5.108;2023-12-07T11:00:51;15.25;;;13.50;;
84264;SDS011;74412;45.626;5.108;2023-12-07T11:03:18;26.25;;;15.75;;
84264;SDS011;74412;45.626;5.108;2023-12-07T11:05:47;19.50;;;15.00;;
84264;SDS011;74412;45.626;5.108;2023-12-07T11:08:14;15.50;;;13.75;;
84264;SDS011;74412;45.626;5.108;2023-12-07T11:10:48;18.75;;;16.75;;
84264;SDS011;74412;45.626;5.108;2023-12-07T11:13:24;20.25;;;17.25;;
84264;SDS011;74412;45.626;5.108;2023-12-07T11:15:56;17.00;;;17.00;;
84264;SDS011;74412;45.626;5.108;2023-12-07T11:18:24;13.25;;;12.50;;
84264;SDS011;74412;45.626;5.108;2023-12-07T11:20:51;14.50;;;13.25;;
84264;SDS011;74412;45.626;5.108;2023-12-07T11:23:19;15.25;;;15.25;;
84264;SDS011;74412;45.626;5.108;2023-12-07T11:25:46;9.00;;;7.50;;
84264;SDS011;74412;45.626;5.108;2023-12-07T11:28:14;16.25;;;14.75;;
84264;SDS011;74412;45.626;5.108;2023-12-07T11:30:41;17.25;;;13.50;;
84264;SDS011;74412;45.626;5.108;2023-12-07T11:33:10;18.50;;;16.00;;
84264;SDS011;74412;45.626;5.108;2023-12-07T11:38:32;14.25;;;12.50;;
84264;SDS011;74412;45.626;5.108;2023-12-07T11:40:59;12.00;;;12.00;;
84264;SDS011;74412;45.626;5.108;2023-12-07T11:43:36;10.50;;;10.00;;
84264;SDS011;74412;45.626;5.108;2023-12-07T11:46:04;6.75;;;6.75;;
84264;SDS011;74412;45.626;5.108;2023-12-07T11:48:34;9.75;;;9.75;;
84264;SDS011;74412;45.626;5.108;2023-12-07T11:51:01;9.00;;;8.50;;
84264;SDS011;74412;45.626;5.108;2023-12-07T11:53:29;6.50;;;5.00;;
84264;SDS011;74412;45.626;5.108;2023-12-07T11:55:57;3.25;;;3.25;;
84264;SDS011;74412;45.626;5.108;2023-12-07T11:58:26;9.50;;;5.00;;
84264;SDS011;74412;45.626;5.108;2023-12-07T12:00:53;4.50;;;4.50;;
84264;SDS011;74412;45.626;5.108;2023-12-07T12:03:21;5.75;;;5.00;;
84264;SDS011;74412;45.626;5.108;2023-12-07T12:05:49;5.00;;;5.00;;
84264;SDS011;74412;45.626;5.108;2023-12-07T12:08:16;4.25;;;4.00;;
84264;SDS011;74412;45.626;5.108;2023-12-07T12:10:43;5.25;;;5.00;;
84264;SDS011;74412;45.626;5.108;2023-12-07T12:13:10;5.75;;;4.00;;
84264;SDS011;74412;45.626;5.108;2023-12-07T12:15:37;4.00;;;4.00;;
84264;SDS011;74412;45.626;5.108;2023-12-07T12:18:04;4.00;;;4.00;;
84264;SDS011;74412;45.626;5.108;2023-12-07T12:20:32;5.25;;;5.00;;
84264;SDS011;74412;45.626;5.108;2023-12-07T12:23:00;5.00;;;5.00;;
84264;SDS011;74412;45.626;5.108;2023-12-07T12:25:27;5.75;;;5.00;;
84264;SDS011;74412;45.626;5.108;2023-12-07T12:27:55;5.00;;;4.50;;
84264;SDS011;74412;45.626;5.108;2023-12-07T12:30:23;5.25;;;5.00;;
84264;SDS011;74412;45.626;5.108;2023-12-07T12:32:50;6.00;;;5.00;;
84264;SDS011;74412;45.626;5.108;2023-12-07T12:35:17;4.25;;;4.25;;
84264;SDS011;74412;45.626;5.108;2023-12-07T12:37:44;4.25;;;4.00;;
84264;SDS011;74412;45.626;5.108;2023-12-07T12:40:14;6.75;;;5.75;;
84264;SDS011;74412;45.626;5.108;2023-12-07T12:42:43;9.25;;;6.00;;
84264;SDS011;74412;45.626;5.108;2023-12-07T12:45:11;7.00;;;7.00;;
84264;SDS011;74412;45.626;5.108;2023-12-07T12:47:38;5.50;;;5.50;;
84264;SDS011;74412;45.626;5.108;2023-12-07T12:50:05;4.50;;;4.50;;
84264;SDS011;74412;45.626;5.108;2023-12-07T12:52:33;7.75;;;6.00;;
84264;SDS011;74412;45.626;5.108;2023-12-07T12:55:01;6.50;;;5.00;;
84264;SDS011;74412;45.626;5.108;2023-12-07T12:57:29;7.25;;;5.75;;
84264;SDS011;74412;45.626;5.108;2023-12-07T12:59:57;7.50;;;6.75;;
84264;SDS011;74412;45.626;5.108;2023-12-07T13:02:26;10.50;;;7.25;;
84264;SDS011;74412;45.626;5.108;2023-12-07T13:04:53;7.00;;;7.00;;
84264;SDS011;74412;45.626;5.108;2023-12-07T13:07:21;13.75;;;13.00;;
84264;SDS011;74412;45.626;5.108;2023-12-07T13:09:49;19.00;;;16.75;;
84264;SDS011;74412;45.626;5.108;2023-12-07T13:12:16;22.00;;;16.00;;
84264;SDS011;74412;45.626;5.108;2023-12-07T13:14:44;10.00;;;7.50;;
84264;SDS011;74412;45.626;5.108;2023-12-07T13:17:11;13.00;;;13.00;;
84264;SDS011;74412;45.626;5.108;2023-12-07T13:19:38;14.25;;;12.50;;
84264;SDS011;74412;45.626;5.108;2023-12-07T13:22:04;15.25;;;13.00;;
84264;SDS011;74412;45.626;5.108;2023-12-07T13:24:31;13.00;;;12.00;;
84264;SDS011;74412;45.626;5.108;2023-12-07T13:26:58;15.00;;;14.50;;
84264;SDS011;74412;45.626;5.108;2023-12-07T13:29:25;21.00;;;18.00;;
84264;SDS011;74412;45.626;5.108;2023-12-07T13:31:53;19.50;;;15.50;;
84264;SDS011;74412;45.626;5.108;2023-12-07T13:34:20;17.25;;;17.25;;
84264;SDS011;74412;45.626;5.108;2023-12-07T13:36:47;22.50;;;20.50;;
84264;SDS011;74412;45.626;5.108;2023-12-07T13:39:14;19.75;;;16.00;;
84264;SDS011;74412;45.626;5.108;2023-12-07T13:41:41;22.00;;;19.00;;
84264;SDS011;74412;45.626;5.108;2023-12-07T13:44:08;20.50;;;19.00;;
84264;SDS011;74412;45.626;5.108;2023-12-07T13:46:34;17.00;;;15.75;;
84264;SDS011;74412;45.626;5.108;2023-12-07T13:49:04;12.00;;;9.00;;
84264;SDS011;74412;45.626;5.108;2023-12-07T13:51:30;8.25;;;8.25;;
84264;SDS011;74412;45.626;5.108;2023-12-07T13:53:58;9.00;;;7.25;;
84264;SDS011;74412;45.626;5.108;2023-12-07T13:56:25;7.25;;;7.25;;
84264;SDS011;74412;45.626;5.108;2023-12-07T13:58:52;6.00;;;6.00;;
84264;SDS011;74412;45.626;5.108;2023-12-07T14:01:19;8.25;;;8.25;;
84264;SDS011;74412;45.626;5.108;2023-12-07T14:03:46;12.50;;;12.25;;
84264;SDS011;74412;45.626;5.108;2023-12-07T14:06:22;7.00;;;7.00;;
84264;SDS011;74412;45.626;5.108;2023-12-07T14:08:49;7.25;;;6.75;;
84264;SDS011;74412;45.626;5.108;2023-12-07T14:11:16;6.00;;;4.00;;
84264;SDS011;74412;45.626;5.108;2023-12-07T14:13:43;4.25;;;4.25;;
84264;SDS011;74412;45.626;5.108;2023-12-07T14:16:11;5.00;;;5.00;;
84264;SDS011;74412;45.626;5.108;2023-12-07T14:18:37;5.75;;;5.75;;
84264;SDS011;74412;45.626;5.108;2023-12-07T14:21:04;6.25;;;6.25;;
84264;SDS011;74412;45.626;5.108;2023-12-07T14:23:32;4.50;;;4.25;;
84264;SDS011;74412;45.626;5.108;2023-12-07T14:25:59;5.50;;;5.00;;
84264;SDS011;74412;45.626;5.108;2023-12-07T14:28:26;5.50;;;5.50;;
84264;SDS011;74412;45.626;5.108;2023-12-07T14:30:55;6.75;;;6.75;;